sensor_id;sensor_type;location;lat;lon;timestamp;P1;durP1;ratioP1;P2;durP2;ratioP2
19219;SDS011;9744;49.364;7.484;2022-10-16T00:01:53;142.00;;;8.70;;
19219;SDS011;9744;49.364;7.484;2022-10-16T00:04:20;6.55;;;4.70;;
19219;SDS011;9744;49.364;7.484;2022-10-16T00:06:47;34.83;;;5.68;;
19219;SDS011;9744;49.364;7.484;2022-10-16T00:09:16;7.47;;;4.18;;
19219;SDS011;9744;49.364;7.484;2022-10-16T00:11:43;4.57;;;3.85;;
19219;SDS011;9744;49.364;7.484;2022-10-16T00:14:11;3.30;;;3.00;;
19219;SDS011;9744;49.364;7.484;2022-10-16T00:16:40;4.55;;;3.10;;
19219;SDS011;9744;49.364;7.484;2022-10-16T00:19:08;3.03;;;2.80;;
19219;SDS011;9744;49.364;7.484;2022-10-16T00:21:36;3.67;;;2.80;;
19219;SDS011;9744;49.364;7.484;2022-10-16T00:24:24;3.70;;;3.38;;
19219;SDS011;9744;49.364;7.484;2022-10-16T00:26:51;5.40;;;3.30;;
19219;SDS011;9744;49.364;7.484;2022-10-16T00:29:18;5.65;;;4.32;;
19219;SDS011;9744;49.364;7.484;2022-10-16T00:31:45;85.47;;;6.45;;
19219;SDS011;9744;49.364;7.484;2022-10-16T00:34:12;236.68;;;10.10;;
19219;SDS011;9744;49.364;7.484;2022-10-16T00:36:40;361.42;;;14.35;;
19219;SDS011;9744;49.364;7.484;2022-10-16T00:39:07;330.17;;;14.13;;
19219;SDS011;9744;49.364;7.484;2022-10-16T00:41:35;307.08;;;13.43;;
19219;SDS011;9744;49.364;7.484;2022-10-16T00:44:03;438.63;;;17.80;;
19219;SDS011;9744;49.364;7.484;2022-10-16T00:46:45;49.08;;;7.93;;
19219;SDS011;9744;49.364;7.484;2022-10-16T00:49:14;114.45;;;9.68;;
19219;SDS011;9744;49.364;7.484;2022-10-16T00:51:43;365.42;;;16.58;;
19219;SDS011;9744;49.364;7.484;2022-10-16T00:58:14;30.35;;;7.68;;
19219;SDS011;9744;49.364;7.484;2022-10-16T01:00:41;23.55;;;8.52;;
19219;SDS011;9744;49.364;7.484;2022-10-16T01:03:22;96.03;;;9.98;;
19219;SDS011;9744;49.364;7.484;2022-10-16T01:05:55;15.35;;;9.05;;
19219;SDS011;9744;49.364;7.484;2022-10-16T01:08:34;97.68;;;10.50;;
19219;SDS011;9744;49.364;7.484;2022-10-16T01:11:12;114.78;;;10.70;;
19219;SDS011;9744;49.364;7.484;2022-10-16T01:13:50;130.02;;;12.85;;
19219;SDS011;9744;49.364;7.484;2022-10-16T01:16:23;483.48;;;21.30;;
19219;SDS011;9744;49.364;7.484;2022-10-16T01:19:00;514.15;;;23.02;;
19219;SDS011;9744;49.364;7.484;2022-10-16T01:21:33;425.88;;;20.25;;
19219;SDS011;9744;49.364;7.484;2022-10-16T01:24:06;592.97;;;26.65;;
19219;SDS011;9744;49.364;7.484;2022-10-16T01:26:44;369.05;;;19.20;;
19219;SDS011;9744;49.364;7.484;2022-10-16T01:29:30;549.95;;;24.95;;
19219;SDS011;9744;49.364;7.484;2022-10-16T01:32:02;671.92;;;29.80;;
19219;SDS011;9744;49.364;7.484;2022-10-16T01:34:37;436.75;;;20.65;;
19219;SDS011;9744;49.364;7.484;2022-10-16T01:37:09;614.40;;;27.80;;
19219;SDS011;9744;49.364;7.484;2022-10-16T01:39:39;388.98;;;18.73;;
19219;SDS011;9744;49.364;7.484;2022-10-16T01:42:09;628.17;;;28.15;;
19219;SDS011;9744;49.364;7.484;2022-10-16T01:44:41;352.10;;;18.95;;
19219;SDS011;9744;49.364;7.484;2022-10-16T01:47:12;92.00;;;10.00;;
19219;SDS011;9744;49.364;7.484;2022-10-16T01:49:41;110.75;;;10.63;;
19219;SDS011;9744;49.364;7.484;2022-10-16T01:52:12;16.42;;;7.57;;
19219;SDS011;9744;49.364;7.484;2022-10-16T01:54:43;10.18;;;5.68;;
19219;SDS011;9744;49.364;7.484;2022-10-16T01:57:14;33.17;;;6.80;;
19219;SDS011;9744;49.364;7.484;2022-10-16T02:03:40;11.05;;;5.70;;
19219;SDS011;9744;49.364;7.484;2022-10-16T02:06:09;18.67;;;5.53;;
19219;SDS011;9744;49.364;7.484;2022-10-16T02:08:37;8.07;;;4.70;;
19219;SDS011;9744;49.364;7.484;2022-10-16T02:11:05;8.27;;;4.97;;
19219;SDS011;9744;49.364;7.484;2022-10-16T02:13:34;8.50;;;4.35;;
19219;SDS011;9744;49.364;7.484;2022-10-16T02:16:05;18.92;;;4.15;;
19219;SDS011;9744;49.364;7.484;2022-10-16T02:18:33;6.03;;;3.25;;
19219;SDS011;9744;49.364;7.484;2022-10-16T02:21:02;10.63;;;3.70;;
19219;SDS011;9744;49.364;7.484;2022-10-16T02:23:39;31.35;;;4.53;;
19219;SDS011;9744;49.364;7.484;2022-10-16T02:26:12;7.93;;;3.40;;
19219;SDS011;9744;49.364;7.484;2022-10-16T02:28:44;57.53;;;4.88;;
19219;SDS011;9744;49.364;7.484;2022-10-16T02:31:15;17.08;;;4.18;;
19219;SDS011;9744;49.364;7.484;2022-10-16T02:33:48;5.82;;;2.70;;
19219;SDS011;9744;49.364;7.484;2022-10-16T02:36:19;2.90;;;2.10;;
19219;SDS011;9744;49.364;7.484;2022-10-16T02:38:46;4.57;;;1.85;;
19219;SDS011;9744;49.364;7.484;2022-10-16T02:41:14;5.25;;;2.08;;
19219;SDS011;9744;49.364;7.484;2022-10-16T02:43:41;4.60;;;2.17;;
19219;SDS011;9744;49.364;7.484;2022-10-16T02:46:09;3.47;;;2.05;;
19219;SDS011;9744;49.364;7.484;2022-10-16T02:48:36;10.02;;;2.15;;
19219;SDS011;9744;49.364;7.484;2022-10-16T02:51:04;6.95;;;3.10;;
19219;SDS011;9744;49.364;7.484;2022-10-16T02:53:34;5.55;;;1.85;;
19219;SDS011;9744;49.364;7.484;2022-10-16T02:56:01;3.90;;;2.25;;
19219;SDS011;9744;49.364;7.484;2022-10-16T02:58:28;7.55;;;1.80;;
19219;SDS011;9744;49.364;7.484;2022-10-16T03:04:22;5.45;;;1.40;;
19219;SDS011;9744;49.364;7.484;2022-10-16T03:06:49;3.13;;;0.88;;
19219;SDS011;9744;49.364;7.484;2022-10-16T03:09:18;2.90;;;1.00;;
19219;SDS011;9744;49.364;7.484;2022-10-16T03:11:45;13.57;;;1.30;;
19219;SDS011;9744;49.364;7.484;2022-10-16T03:14:12;6.30;;;2.17;;
19219;SDS011;9744;49.364;7.484;2022-10-16T03:16:39;0.73;;;0.70;;
19219;SDS011;9744;49.364;7.484;2022-10-16T03:19:06;2.80;;;1.23;;
19219;SDS011;9744;49.364;7.484;2022-10-16T03:21:34;3.95;;;0.80;;
19219;SDS011;9744;49.364;7.484;2022-10-16T03:24:01;4.72;;;0.80;;
19219;SDS011;9744;49.364;7.484;2022-10-16T03:26:30;2.90;;;1.05;;
19219;SDS011;9744;49.364;7.484;2022-10-16T03:28:57;5.57;;;1.00;;
19219;SDS011;9744;49.364;7.484;2022-10-16T03:34:22;3.78;;;1.40;;
19219;SDS011;9744;49.364;7.484;2022-10-16T03:36:50;2.20;;;1.10;;
19219;SDS011;9744;49.364;7.484;2022-10-16T03:39:17;4.15;;;0.90;;
19219;SDS011;9744;49.364;7.484;2022-10-16T03:41:45;3.90;;;1.10;;
19219;SDS011;9744;49.364;7.484;2022-10-16T03:44:13;2.00;;;0.82;;
19219;SDS011;9744;49.364;7.484;2022-10-16T03:46:40;0.82;;;0.70;;
19219;SDS011;9744;49.364;7.484;2022-10-16T03:53:08;5.20;;;0.80;;
19219;SDS011;9744;49.364;7.484;2022-10-16T03:55:35;1.05;;;0.80;;
19219;SDS011;9744;49.364;7.484;2022-10-16T04:02:04;1.95;;;0.73;;
19219;SDS011;9744;49.364;7.484;2022-10-16T04:04:31;5.40;;;0.73;;
19219;SDS011;9744;49.364;7.484;2022-10-16T04:06:59;4.15;;;0.88;;
19219;SDS011;9744;49.364;7.484;2022-10-16T04:09:26;3.50;;;0.70;;
19219;SDS011;9744;49.364;7.484;2022-10-16T04:11:53;6.30;;;1.00;;
19219;SDS011;9744;49.364;7.484;2022-10-16T04:14:20;0.90;;;0.68;;
19219;SDS011;9744;49.364;7.484;2022-10-16T04:16:48;3.08;;;0.90;;
19219;SDS011;9744;49.364;7.484;2022-10-16T04:19:16;4.80;;;1.23;;
19219;SDS011;9744;49.364;7.484;2022-10-16T04:21:44;1.75;;;0.90;;
19219;SDS011;9744;49.364;7.484;2022-10-16T04:24:11;7.00;;;1.20;;
19219;SDS011;9744;49.364;7.484;2022-10-16T04:26:38;1.20;;;1.10;;
19219;SDS011;9744;49.364;7.484;2022-10-16T04:29:05;1.75;;;1.10;;
19219;SDS011;9744;49.364;7.484;2022-10-16T04:31:32;5.20;;;1.30;;
19219;SDS011;9744;49.364;7.484;2022-10-16T04:34:00;5.53;;;1.95;;
19219;SDS011;9744;49.364;7.484;2022-10-16T04:36:28;8.75;;;1.70;;
19219;SDS011;9744;49.364;7.484;2022-10-16T04:38:56;7.32;;;2.10;;
19219;SDS011;9744;49.364;7.484;2022-10-16T04:41:23;4.50;;;2.20;;
19219;SDS011;9744;49.364;7.484;2022-10-16T04:47:44;9.10;;;2.78;;
19219;SDS011;9744;49.364;7.484;2022-10-16T04:50:11;6.28;;;2.90;;
19219;SDS011;9744;49.364;7.484;2022-10-16T04:52:40;5.30;;;2.70;;
19219;SDS011;9744;49.364;7.484;2022-10-16T04:55:07;8.88;;;3.70;;
19219;SDS011;9744;49.364;7.484;2022-10-16T04:57:34;10.40;;;3.75;;
19219;SDS011;9744;49.364;7.484;2022-10-16T05:00:02;13.73;;;4.45;;
19219;SDS011;9744;49.364;7.484;2022-10-16T05:02:29;7.05;;;4.18;;
19219;SDS011;9744;49.364;7.484;2022-10-16T05:04:57;9.77;;;4.78;;
19219;SDS011;9744;49.364;7.484;2022-10-16T05:07:24;9.90;;;4.38;;
19219;SDS011;9744;49.364;7.484;2022-10-16T05:13:53;6.88;;;4.70;;
19219;SDS011;9744;49.364;7.484;2022-10-16T05:16:21;12.70;;;5.28;;
19219;SDS011;9744;49.364;7.484;2022-10-16T05:18:48;9.75;;;5.28;;
19219;SDS011;9744;49.364;7.484;2022-10-16T05:21:15;12.82;;;6.38;;
19219;SDS011;9744;49.364;7.484;2022-10-16T05:23:42;7.95;;;5.10;;
19219;SDS011;9744;49.364;7.484;2022-10-16T05:26:10;13.13;;;5.60;;
19219;SDS011;9744;49.364;7.484;2022-10-16T05:28:37;8.77;;;5.22;;
19219;SDS011;9744;49.364;7.484;2022-10-16T05:31:06;11.55;;;5.32;;
19219;SDS011;9744;49.364;7.484;2022-10-16T05:33:34;12.70;;;5.18;;
19219;SDS011;9744;49.364;7.484;2022-10-16T05:36:02;10.18;;;5.70;;
19219;SDS011;9744;49.364;7.484;2022-10-16T05:38:30;12.07;;;6.75;;
19219;SDS011;9744;49.364;7.484;2022-10-16T05:40:57;15.00;;;8.05;;
19219;SDS011;9744;49.364;7.484;2022-10-16T05:43:26;15.15;;;7.82;;
19219;SDS011;9744;49.364;7.484;2022-10-16T05:45:54;14.40;;;6.65;;
19219;SDS011;9744;49.364;7.484;2022-10-16T05:48:23;13.00;;;7.05;;
19219;SDS011;9744;49.364;7.484;2022-10-16T05:51:00;13.25;;;6.63;;
19219;SDS011;9744;49.364;7.484;2022-10-16T05:53:30;16.55;;;7.93;;
19219;SDS011;9744;49.364;7.484;2022-10-16T05:55:58;17.70;;;8.27;;
19219;SDS011;9744;49.364;7.484;2022-10-16T05:58:28;10.93;;;6.60;;
19219;SDS011;9744;49.364;7.484;2022-10-16T06:00:56;13.00;;;6.13;;
19219;SDS011;9744;49.364;7.484;2022-10-16T06:03:26;9.57;;;6.45;;
19219;SDS011;9744;49.364;7.484;2022-10-16T06:05:53;15.90;;;6.65;;
19219;SDS011;9744;49.364;7.484;2022-10-16T06:08:21;10.88;;;7.20;;
19219;SDS011;9744;49.364;7.484;2022-10-16T06:14:21;11.88;;;7.47;;
19219;SDS011;9744;49.364;7.484;2022-10-16T06:16:48;13.77;;;6.90;;
19219;SDS011;9744;49.364;7.484;2022-10-16T06:19:17;63.08;;;10.13;;
19219;SDS011;9744;49.364;7.484;2022-10-16T06:21:44;18.88;;;11.32;;
19219;SDS011;9744;49.364;7.484;2022-10-16T06:24:11;16.90;;;9.85;;
19219;SDS011;9744;49.364;7.484;2022-10-16T06:26:38;14.35;;;9.27;;
19219;SDS011;9744;49.364;7.484;2022-10-16T06:29:07;15.70;;;7.18;;
19219;SDS011;9744;49.364;7.484;2022-10-16T06:31:35;12.07;;;6.88;;
19219;SDS011;9744;49.364;7.484;2022-10-16T06:34:02;11.38;;;7.07;;
19219;SDS011;9744;49.364;7.484;2022-10-16T06:39:24;18.98;;;6.90;;
19219;SDS011;9744;49.364;7.484;2022-10-16T06:41:51;14.30;;;7.38;;
19219;SDS011;9744;49.364;7.484;2022-10-16T06:44:19;10.18;;;7.45;;
19219;SDS011;9744;49.364;7.484;2022-10-16T06:46:46;14.75;;;7.25;;
19219;SDS011;9744;49.364;7.484;2022-10-16T06:49:13;15.60;;;8.57;;
19219;SDS011;9744;49.364;7.484;2022-10-16T06:51:46;14.77;;;6.93;;
19219;SDS011;9744;49.364;7.484;2022-10-16T06:54:15;16.30;;;7.65;;
19219;SDS011;9744;49.364;7.484;2022-10-16T06:56:43;18.92;;;7.38;;
19219;SDS011;9744;49.364;7.484;2022-10-16T06:59:10;13.30;;;7.45;;
19219;SDS011;9744;49.364;7.484;2022-10-16T07:01:38;17.75;;;8.10;;
19219;SDS011;9744;49.364;7.484;2022-10-16T07:07:59;8.18;;;5.95;;
19219;SDS011;9744;49.364;7.484;2022-10-16T07:10:28;13.77;;;7.47;;
19219;SDS011;9744;49.364;7.484;2022-10-16T07:12:55;9.88;;;6.28;;
19219;SDS011;9744;49.364;7.484;2022-10-16T07:19:29;18.13;;;7.55;;
19219;SDS011;9744;49.364;7.484;2022-10-16T07:25:57;8.90;;;6.40;;
19219;SDS011;9744;49.364;7.484;2022-10-16T07:28:25;14.60;;;7.70;;
19219;SDS011;9744;49.364;7.484;2022-10-16T07:30:52;12.95;;;8.20;;
19219;SDS011;9744;49.364;7.484;2022-10-16T07:33:19;14.27;;;5.00;;
19219;SDS011;9744;49.364;7.484;2022-10-16T07:35:48;22.48;;;6.10;;
19219;SDS011;9744;49.364;7.484;2022-10-16T07:38:16;9.48;;;6.10;;
19219;SDS011;9744;49.364;7.484;2022-10-16T07:40:43;12.57;;;6.00;;
19219;SDS011;9744;49.364;7.484;2022-10-16T07:43:12;8.38;;;4.95;;
19219;SDS011;9744;49.364;7.484;2022-10-16T07:45:46;13.70;;;5.30;;
19219;SDS011;9744;49.364;7.484;2022-10-16T07:48:13;11.02;;;5.80;;
19219;SDS011;9744;49.364;7.484;2022-10-16T07:54:34;15.27;;;6.95;;
19219;SDS011;9744;49.364;7.484;2022-10-16T07:57:01;15.30;;;6.50;;
19219;SDS011;9744;49.364;7.484;2022-10-16T07:59:30;10.07;;;6.10;;
19219;SDS011;9744;49.364;7.484;2022-10-16T08:01:57;11.60;;;7.00;;
19219;SDS011;9744;49.364;7.484;2022-10-16T08:08:18;21.35;;;9.80;;
19219;SDS011;9744;49.364;7.484;2022-10-16T08:10:46;12.98;;;8.40;;
19219;SDS011;9744;49.364;7.484;2022-10-16T08:13:13;14.27;;;9.23;;
19219;SDS011;9744;49.364;7.484;2022-10-16T08:15:41;15.57;;;11.07;;
19219;SDS011;9744;49.364;7.484;2022-10-16T08:18:09;15.73;;;8.23;;
19219;SDS011;9744;49.364;7.484;2022-10-16T08:20:37;14.93;;;8.20;;
19219;SDS011;9744;49.364;7.484;2022-10-16T08:23:06;15.20;;;7.25;;
19219;SDS011;9744;49.364;7.484;2022-10-16T08:25:34;15.57;;;6.82;;
19219;SDS011;9744;49.364;7.484;2022-10-16T08:28:02;12.52;;;7.43;;
19219;SDS011;9744;49.364;7.484;2022-10-16T08:30:30;14.20;;;7.72;;
19219;SDS011;9744;49.364;7.484;2022-10-16T08:33:00;14.50;;;7.75;;
19219;SDS011;9744;49.364;7.484;2022-10-16T08:35:27;11.85;;;8.52;;
19219;SDS011;9744;49.364;7.484;2022-10-16T08:37:55;14.90;;;7.72;;
19219;SDS011;9744;49.364;7.484;2022-10-16T08:40:23;14.73;;;7.07;;
19219;SDS011;9744;49.364;7.484;2022-10-16T08:43:05;18.88;;;6.93;;
19219;SDS011;9744;49.364;7.484;2022-10-16T08:45:50;15.88;;;8.02;;
19219;SDS011;9744;49.364;7.484;2022-10-16T08:48:33;12.52;;;7.50;;
19219;SDS011;9744;49.364;7.484;2022-10-16T08:51:06;13.20;;;8.32;;
19219;SDS011;9744;49.364;7.484;2022-10-16T08:57:31;11.98;;;7.05;;
19219;SDS011;9744;49.364;7.484;2022-10-16T08:59:59;15.73;;;8.02;;
19219;SDS011;9744;49.364;7.484;2022-10-16T09:02:33;12.52;;;7.28;;
19219;SDS011;9744;49.364;7.484;2022-10-16T09:05:23;14.48;;;7.10;;
19219;SDS011;9744;49.364;7.484;2022-10-16T09:08:03;9.27;;;6.88;;
19219;SDS011;9744;49.364;7.484;2022-10-16T09:13:34;15.43;;;12.88;;
19219;SDS011;9744;49.364;7.484;2022-10-16T09:16:13;13.35;;;7.55;;
19219;SDS011;9744;49.364;7.484;2022-10-16T09:18:49;10.57;;;7.93;;
19219;SDS011;9744;49.364;7.484;2022-10-16T09:21:25;16.88;;;10.05;;
19219;SDS011;9744;49.364;7.484;2022-10-16T09:23:56;18.02;;;9.18;;
19219;SDS011;9744;49.364;7.484;2022-10-16T09:26:25;11.63;;;5.38;;
19219;SDS011;9744;49.364;7.484;2022-10-16T09:28:53;8.98;;;5.68;;
19219;SDS011;9744;49.364;7.484;2022-10-16T09:31:20;9.48;;;6.38;;
19219;SDS011;9744;49.364;7.484;2022-10-16T09:33:50;12.77;;;5.18;;
19219;SDS011;9744;49.364;7.484;2022-10-16T09:36:21;8.43;;;6.10;;
19219;SDS011;9744;49.364;7.484;2022-10-16T09:39:01;6.13;;;4.95;;
19219;SDS011;9744;49.364;7.484;2022-10-16T09:41:33;9.45;;;4.15;;
19219;SDS011;9744;49.364;7.484;2022-10-16T09:44:02;6.18;;;3.70;;
19219;SDS011;9744;49.364;7.484;2022-10-16T09:46:32;15.38;;;4.82;;
19219;SDS011;9744;49.364;7.484;2022-10-16T09:49:02;9.70;;;4.20;;
19219;SDS011;9744;49.364;7.484;2022-10-16T09:51:32;9.07;;;5.22;;
19219;SDS011;9744;49.364;7.484;2022-10-16T09:54:02;8.90;;;4.00;;
19219;SDS011;9744;49.364;7.484;2022-10-16T09:56:40;6.40;;;4.15;;
19219;SDS011;9744;49.364;7.484;2022-10-16T09:59:11;14.88;;;5.75;;
19219;SDS011;9744;49.364;7.484;2022-10-16T10:01:41;10.32;;;5.30;;
19219;SDS011;9744;49.364;7.484;2022-10-16T10:04:12;6.05;;;4.57;;
19219;SDS011;9744;49.364;7.484;2022-10-16T10:06:42;6.53;;;3.60;;
19219;SDS011;9744;49.364;7.484;2022-10-16T10:09:19;6.45;;;4.05;;
19219;SDS011;9744;49.364;7.484;2022-10-16T10:11:50;12.48;;;4.43;;
19219;SDS011;9744;49.364;7.484;2022-10-16T10:14:26;8.90;;;4.03;;
19219;SDS011;9744;49.364;7.484;2022-10-16T10:19:47;7.80;;;4.88;;
19219;SDS011;9744;49.364;7.484;2022-10-16T10:22:18;6.30;;;3.83;;
19219;SDS011;9744;49.364;7.484;2022-10-16T10:27:56;6.65;;;4.40;;
19219;SDS011;9744;49.364;7.484;2022-10-16T10:30:32;8.70;;;3.70;;
19219;SDS011;9744;49.364;7.484;2022-10-16T10:33:21;12.35;;;4.00;;
19219;SDS011;9744;49.364;7.484;2022-10-16T10:35:56;11.90;;;3.63;;
19219;SDS011;9744;49.364;7.484;2022-10-16T10:38:37;7.78;;;3.90;;
19219;SDS011;9744;49.364;7.484;2022-10-16T10:41:15;6.95;;;4.05;;
19219;SDS011;9744;49.364;7.484;2022-10-16T10:43:56;5.63;;;3.85;;
19219;SDS011;9744;49.364;7.484;2022-10-16T10:46:31;5.70;;;3.97;;
19219;SDS011;9744;49.364;7.484;2022-10-16T10:49:14;6.43;;;3.25;;
19219;SDS011;9744;49.364;7.484;2022-10-16T10:52:00;10.95;;;3.97;;
19219;SDS011;9744;49.364;7.484;2022-10-16T10:54:37;12.05;;;6.25;;
19219;SDS011;9744;49.364;7.484;2022-10-16T10:57:14;8.50;;;3.38;;
19219;SDS011;9744;49.364;7.484;2022-10-16T10:59:52;9.30;;;3.42;;
19219;SDS011;9744;49.364;7.484;2022-10-16T11:02:31;10.40;;;3.42;;
19219;SDS011;9744;49.364;7.484;2022-10-16T11:08:07;12.70;;;6.85;;
19219;SDS011;9744;49.364;7.484;2022-10-16T11:10:42;18.27;;;3.78;;
19219;SDS011;9744;49.364;7.484;2022-10-16T11:13:19;12.23;;;5.90;;
19219;SDS011;9744;49.364;7.484;2022-10-16T11:15:54;9.35;;;3.90;;
19219;SDS011;9744;49.364;7.484;2022-10-16T11:18:27;12.48;;;3.22;;
19219;SDS011;9744;49.364;7.484;2022-10-16T11:21:02;5.72;;;2.97;;
19219;SDS011;9744;49.364;7.484;2022-10-16T11:23:34;6.38;;;3.28;;
19219;SDS011;9744;49.364;7.484;2022-10-16T11:26:10;8.13;;;3.13;;
19219;SDS011;9744;49.364;7.484;2022-10-16T11:28:43;4.93;;;2.88;;
19219;SDS011;9744;49.364;7.484;2022-10-16T11:31:15;7.03;;;3.20;;
19219;SDS011;9744;49.364;7.484;2022-10-16T11:33:49;9.55;;;2.90;;
19219;SDS011;9744;49.364;7.484;2022-10-16T11:36:22;8.82;;;2.95;;
19219;SDS011;9744;49.364;7.484;2022-10-16T11:38:54;6.78;;;3.00;;
19219;SDS011;9744;49.364;7.484;2022-10-16T11:41:29;5.72;;;2.67;;
19219;SDS011;9744;49.364;7.484;2022-10-16T11:44:07;4.63;;;3.03;;
19219;SDS011;9744;49.364;7.484;2022-10-16T11:46:44;6.70;;;3.25;;
19219;SDS011;9744;49.364;7.484;2022-10-16T11:49:15;10.45;;;3.35;;
19219;SDS011;9744;49.364;7.484;2022-10-16T11:51:47;10.07;;;2.92;;
19219;SDS011;9744;49.364;7.484;2022-10-16T11:54:21;5.47;;;3.30;;
19219;SDS011;9744;49.364;7.484;2022-10-16T11:56:57;7.43;;;3.55;;
19219;SDS011;9744;49.364;7.484;2022-10-16T11:59:30;10.25;;;3.72;;
19219;SDS011;9744;49.364;7.484;2022-10-16T12:02:11;5.90;;;2.70;;
19219;SDS011;9744;49.364;7.484;2022-10-16T12:04:54;4.95;;;2.83;;
19219;SDS011;9744;49.364;7.484;2022-10-16T12:07:32;6.55;;;2.80;;
19219;SDS011;9744;49.364;7.484;2022-10-16T12:10:10;7.68;;;2.38;;
19219;SDS011;9744;49.364;7.484;2022-10-16T12:12:46;3.25;;;2.33;;
19219;SDS011;9744;49.364;7.484;2022-10-16T12:15:19;5.30;;;3.45;;
19219;SDS011;9744;49.364;7.484;2022-10-16T12:17:50;3.50;;;2.10;;
19219;SDS011;9744;49.364;7.484;2022-10-16T12:20:20;5.05;;;2.63;;
19219;SDS011;9744;49.364;7.484;2022-10-16T12:22:53;5.60;;;3.00;;
19219;SDS011;9744;49.364;7.484;2022-10-16T12:25:23;8.05;;;2.92;;
19219;SDS011;9744;49.364;7.484;2022-10-16T12:27:55;8.52;;;4.07;;
19219;SDS011;9744;49.364;7.484;2022-10-16T12:30:25;4.57;;;2.85;;
19219;SDS011;9744;49.364;7.484;2022-10-16T12:32:54;3.80;;;2.42;;
19219;SDS011;9744;49.364;7.484;2022-10-16T12:35:23;3.67;;;2.10;;
19219;SDS011;9744;49.364;7.484;2022-10-16T12:37:53;8.18;;;2.22;;
19219;SDS011;9744;49.364;7.484;2022-10-16T12:40:25;7.88;;;2.15;;
19219;SDS011;9744;49.364;7.484;2022-10-16T12:42:56;6.20;;;2.90;;
19219;SDS011;9744;49.364;7.484;2022-10-16T12:45:24;3.88;;;2.70;;
19219;SDS011;9744;49.364;7.484;2022-10-16T12:47:54;6.03;;;3.22;;
19219;SDS011;9744;49.364;7.484;2022-10-16T12:50:29;10.85;;;3.17;;
19219;SDS011;9744;49.364;7.484;2022-10-16T12:52:59;7.10;;;3.22;;
19219;SDS011;9744;49.364;7.484;2022-10-16T12:55:32;6.63;;;2.92;;
19219;SDS011;9744;49.364;7.484;2022-10-16T12:58:18;3.28;;;2.45;;
19219;SDS011;9744;49.364;7.484;2022-10-16T13:01:07;7.07;;;2.53;;
19219;SDS011;9744;49.364;7.484;2022-10-16T13:06:48;3.40;;;2.40;;
19219;SDS011;9744;49.364;7.484;2022-10-16T13:09:25;9.13;;;2.65;;
19219;SDS011;9744;49.364;7.484;2022-10-16T13:12:13;8.30;;;2.92;;
19219;SDS011;9744;49.364;7.484;2022-10-16T13:15:04;5.65;;;2.90;;
19219;SDS011;9744;49.364;7.484;2022-10-16T13:17:50;12.18;;;2.42;;
19219;SDS011;9744;49.364;7.484;2022-10-16T13:20:26;5.63;;;2.63;;
19219;SDS011;9744;49.364;7.484;2022-10-16T13:23:03;6.65;;;2.90;;
19219;SDS011;9744;49.364;7.484;2022-10-16T13:25:43;3.58;;;2.55;;
19219;SDS011;9744;49.364;7.484;2022-10-16T13:28:21;6.03;;;3.05;;
19219;SDS011;9744;49.364;7.484;2022-10-16T13:30:56;5.90;;;3.30;;
19219;SDS011;9744;49.364;7.484;2022-10-16T13:33:27;15.43;;;9.35;;
19219;SDS011;9744;49.364;7.484;2022-10-16T13:35:59;15.75;;;5.50;;
19219;SDS011;9744;49.364;7.484;2022-10-16T13:38:27;16.70;;;7.35;;
19219;SDS011;9744;49.364;7.484;2022-10-16T13:40:55;8.05;;;4.45;;
19219;SDS011;9744;49.364;7.484;2022-10-16T13:43:25;5.45;;;3.78;;
19219;SDS011;9744;49.364;7.484;2022-10-16T13:45:57;8.50;;;3.95;;
19219;SDS011;9744;49.364;7.484;2022-10-16T13:48:27;16.23;;;6.35;;
19219;SDS011;9744;49.364;7.484;2022-10-16T13:50:58;2.95;;;2.65;;
19219;SDS011;9744;49.364;7.484;2022-10-16T13:53:26;10.48;;;2.58;;
19219;SDS011;9744;49.364;7.484;2022-10-16T13:55:53;12.18;;;3.65;;
19219;SDS011;9744;49.364;7.484;2022-10-16T13:58:21;9.65;;;2.40;;
19219;SDS011;9744;49.364;7.484;2022-10-16T14:00:56;8.57;;;2.75;;
19219;SDS011;9744;49.364;7.484;2022-10-16T14:03:25;4.63;;;2.42;;
19219;SDS011;9744;49.364;7.484;2022-10-16T14:05:54;5.35;;;2.60;;
19219;SDS011;9744;49.364;7.484;2022-10-16T14:08:23;6.70;;;3.90;;
19219;SDS011;9744;49.364;7.484;2022-10-16T14:10:52;5.93;;;2.85;;
19219;SDS011;9744;49.364;7.484;2022-10-16T14:13:23;7.32;;;3.17;;
19219;SDS011;9744;49.364;7.484;2022-10-16T14:15:58;13.07;;;3.50;;
19219;SDS011;9744;49.364;7.484;2022-10-16T14:18:29;7.45;;;4.30;;
19219;SDS011;9744;49.364;7.484;2022-10-16T14:21:02;8.15;;;3.80;;
19219;SDS011;9744;49.364;7.484;2022-10-16T14:23:30;4.05;;;2.00;;
19219;SDS011;9744;49.364;7.484;2022-10-16T14:26:13;8.15;;;2.45;;
19219;SDS011;9744;49.364;7.484;2022-10-16T14:28:42;6.55;;;3.80;;
19219;SDS011;9744;49.364;7.484;2022-10-16T14:31:24;4.72;;;2.38;;
19219;SDS011;9744;49.364;7.484;2022-10-16T14:33:56;7.25;;;2.70;;
19219;SDS011;9744;49.364;7.484;2022-10-16T14:36:24;8.80;;;3.03;;
19219;SDS011;9744;49.364;7.484;2022-10-16T14:38:59;8.77;;;3.00;;
19219;SDS011;9744;49.364;7.484;2022-10-16T14:41:29;4.72;;;2.63;;
19219;SDS011;9744;49.364;7.484;2022-10-16T14:43:58;9.57;;;3.00;;
19219;SDS011;9744;49.364;7.484;2022-10-16T14:46:31;5.03;;;2.97;;
19219;SDS011;9744;49.364;7.484;2022-10-16T14:49:02;8.93;;;3.17;;
19219;SDS011;9744;49.364;7.484;2022-10-16T14:51:32;5.45;;;2.85;;
19219;SDS011;9744;49.364;7.484;2022-10-16T14:53:59;6.80;;;3.75;;
19219;SDS011;9744;49.364;7.484;2022-10-16T14:56:29;8.45;;;3.08;;
19219;SDS011;9744;49.364;7.484;2022-10-16T14:58:57;8.68;;;3.78;;
19219;SDS011;9744;49.364;7.484;2022-10-16T15:01:24;11.18;;;3.63;;
19219;SDS011;9744;49.364;7.484;2022-10-16T15:03:53;9.80;;;3.35;;
19219;SDS011;9744;49.364;7.484;2022-10-16T15:06:20;9.25;;;4.78;;
19219;SDS011;9744;49.364;7.484;2022-10-16T15:08:48;13.75;;;4.38;;
19219;SDS011;9744;49.364;7.484;2022-10-16T15:11:16;9.95;;;4.90;;
19219;SDS011;9744;49.364;7.484;2022-10-16T15:13:44;16.48;;;7.57;;
19219;SDS011;9744;49.364;7.484;2022-10-16T15:16:13;15.27;;;10.15;;
19219;SDS011;9744;49.364;7.484;2022-10-16T15:18:41;15.68;;;10.70;;
19219;SDS011;9744;49.364;7.484;2022-10-16T15:21:10;13.10;;;8.05;;
19219;SDS011;9744;49.364;7.484;2022-10-16T15:23:50;11.77;;;6.93;;
19219;SDS011;9744;49.364;7.484;2022-10-16T15:26:17;11.27;;;7.30;;
19219;SDS011;9744;49.364;7.484;2022-10-16T15:28:44;7.60;;;4.95;;
19219;SDS011;9744;49.364;7.484;2022-10-16T15:31:11;13.13;;;5.43;;
19219;SDS011;9744;49.364;7.484;2022-10-16T15:33:38;12.13;;;6.00;;
19219;SDS011;9744;49.364;7.484;2022-10-16T15:36:06;16.35;;;7.07;;
19219;SDS011;9744;49.364;7.484;2022-10-16T15:38:35;14.57;;;4.43;;
19219;SDS011;9744;49.364;7.484;2022-10-16T15:41:02;9.18;;;5.47;;
19219;SDS011;9744;49.364;7.484;2022-10-16T15:43:30;8.30;;;4.40;;
19219;SDS011;9744;49.364;7.484;2022-10-16T15:46:01;10.15;;;4.05;;
19219;SDS011;9744;49.364;7.484;2022-10-16T15:48:30;8.65;;;4.18;;
19219;SDS011;9744;49.364;7.484;2022-10-16T15:50:58;8.40;;;3.90;;
19219;SDS011;9744;49.364;7.484;2022-10-16T15:53:26;13.20;;;4.28;;
19219;SDS011;9744;49.364;7.484;2022-10-16T15:55:55;5.20;;;3.95;;
19219;SDS011;9744;49.364;7.484;2022-10-16T15:58:22;7.43;;;4.00;;
19219;SDS011;9744;49.364;7.484;2022-10-16T16:00:54;15.63;;;3.78;;
19219;SDS011;9744;49.364;7.484;2022-10-16T16:03:22;6.57;;;3.72;;
19219;SDS011;9744;49.364;7.484;2022-10-16T16:05:49;11.35;;;3.40;;
19219;SDS011;9744;49.364;7.484;2022-10-16T16:08:16;10.38;;;4.00;;
19219;SDS011;9744;49.364;7.484;2022-10-16T16:10:43;14.07;;;6.78;;
19219;SDS011;9744;49.364;7.484;2022-10-16T16:13:12;10.50;;;6.95;;
19219;SDS011;9744;49.364;7.484;2022-10-16T16:15:39;11.50;;;4.95;;
19219;SDS011;9744;49.364;7.484;2022-10-16T16:18:06;14.85;;;5.32;;
19219;SDS011;9744;49.364;7.484;2022-10-16T16:20:34;11.15;;;4.72;;
19219;SDS011;9744;49.364;7.484;2022-10-16T16:23:02;11.75;;;4.60;;
19219;SDS011;9744;49.364;7.484;2022-10-16T16:25:29;15.70;;;5.22;;
19219;SDS011;9744;49.364;7.484;2022-10-16T16:27:56;10.32;;;4.32;;
19219;SDS011;9744;49.364;7.484;2022-10-16T16:30:27;11.30;;;4.88;;